Terminal Aerodrome Forecast
Issued by NWS Buffalo, NY

Home | Current Version | Previous Version | Text Only | Print | Product List | Glossary On
Versions: 1 2 3 4 5 6 7 8 9 10 11 12 13 14 15 16 17 18 19 20 21 22 23 24 25
000
FTUS41 KBUF 180543
TAFBUF
TAF
KBUF 180543Z 1806/1906 14006KT P6SM SCT100 OVC200 WS015/23040KT
     FM180900 18010KT P6SM SCT050 BKN100 WS015/23040KT
     FM181100 18012KT 6SM -RA BKN050 WS020/22040KT
     FM181400 20014G22KT 6SM -RA OVC025
     FM181700 20012G20KT P6SM VCSH OVC015
     FM182100 18010KT 6SM -RA OVC015
     FM190300 22012G20KT 6SM -RA SCT015 BKN025=

USA.gov is the U.S. government's official web portal to all federal, state and local government web resources and services.